createdAt,value
2018-09-24T00:02:25.035Z,8.10
2018-09-24T00:04:54.976Z,8.10
2018-09-24T00:07:25.799Z,8.10
2018-09-24T00:09:55.541Z,8.00
2018-09-24T00:12:25.927Z,8.00
2018-09-24T00:14:55.737Z,8.00
2018-09-24T00:17:25.504Z,8.10
2018-09-24T00:19:55.369Z,8.20
2018-09-24T00:22:25.367Z,8.30
2018-09-24T00:24:55.423Z,8.30
2018-09-24T00:27:25.555Z,8.30
2018-09-24T00:29:56.391Z,8.50
2018-09-24T00:32:26.180Z,8.50
2018-09-24T00:34:56.096Z,8.30
2018-09-24T00:37:26.127Z,8.40
2018-09-24T00:39:56.437Z,8.40
2018-09-24T00:42:26.560Z,8.30
2018-09-24T00:44:56.271Z,8.30
2018-09-24T00:47:26.539Z,8.30
2018-09-24T00:49:56.641Z,8.40
2018-09-24T00:52:27.167Z,8.40
2018-09-24T00:54:57.066Z,8.50
2018-09-24T00:57:29.199Z,8.60
2018-09-24T00:59:59.487Z,8.50
2018-09-24T01:02:29.539Z,8.60
2018-09-24T01:04:59.665Z,8.60
2018-09-24T01:07:29.565Z,8.70
2018-09-24T01:09:59.535Z,8.70
2018-09-24T01:12:30.121Z,8.70
2018-09-24T01:14:59.971Z,8.60
2018-09-24T01:17:30.848Z,8.50
2018-09-24T01:20:00.827Z,8.50
2018-09-24T01:22:31.061Z,8.30
2018-09-24T01:25:01.266Z,8.30
2018-09-24T01:27:31.227Z,8.40
2018-09-24T01:30:01.327Z,8.40
2018-09-24T01:32:31.517Z,8.50
2018-09-24T01:35:01.262Z,8.50
2018-09-24T01:37:32.528Z,8.40
2018-09-24T01:40:02.584Z,8.30
2018-09-24T01:42:32.665Z,8.30
2018-09-24T01:45:02.956Z,8.20
2018-09-24T01:47:32.721Z,8.10
2018-09-24T01:50:02.524Z,8.10
2018-09-24T01:52:32.479Z,8.20
2018-09-24T01:55:02.324Z,8.10
2018-09-24T01:57:34.040Z,8.20
2018-09-24T02:00:03.887Z,8.10
2018-09-24T02:02:33.907Z,8.20
2018-09-24T02:05:03.584Z,8.00
2018-09-24T02:07:35.006Z,8.20
2018-09-24T02:10:04.933Z,8.10
2018-09-24T02:12:35.405Z,8.00
2018-09-24T02:15:06.788Z,8.00
2018-09-24T02:17:36.935Z,7.90
2018-09-24T02:20:07.017Z,7.90
2018-09-24T02:22:37.051Z,7.90
2018-09-24T02:25:06.853Z,7.80
2018-09-24T02:27:37.044Z,7.80
2018-09-24T02:30:07.335Z,7.70
2018-09-24T02:32:37.105Z,7.60
2018-09-24T02:35:07.295Z,7.50
2018-09-24T02:37:38.071Z,7.50
2018-09-24T02:40:09.111Z,7.20
2018-09-24T02:42:38.804Z,7.10
2018-09-24T02:45:08.455Z,6.90
2018-09-24T02:47:38.869Z,6.70
2018-09-24T02:50:08.930Z,6.80
2018-09-24T02:52:38.752Z,6.70
2018-09-24T02:55:15.908Z,6.90
2018-09-24T02:57:45.870Z,7.20
2018-09-24T03:00:22.335Z,7.40
2018-09-24T03:02:52.261Z,7.40
2018-09-24T03:05:22.829Z,7.60
2018-09-24T03:07:52.707Z,7.60
2018-09-24T03:10:22.723Z,7.60
2018-09-24T03:12:53.545Z,7.60
2018-09-24T03:15:23.422Z,7.60
2018-09-24T03:17:53.341Z,7.60
2018-09-24T03:20:23.374Z,7.60
2018-09-24T03:22:53.293Z,7.60
2018-09-24T03:25:23.088Z,7.70
2018-09-24T03:27:53.002Z,7.60
2018-09-24T03:30:23.114Z,7.50
2018-09-24T03:32:53.578Z,7.50
2018-09-24T03:35:23.533Z,7.40
2018-09-24T03:37:53.954Z,7.40
2018-09-24T03:40:23.677Z,7.40
2018-09-24T03:42:53.654Z,7.40
2018-09-24T03:45:23.611Z,7.40
2018-09-24T03:47:53.755Z,7.40
2018-09-24T03:50:23.269Z,7.10
2018-09-24T03:52:53.187Z,7.00
2018-09-24T03:55:22.927Z,6.80
2018-09-24T03:57:52.764Z,6.70
2018-09-24T04:00:22.805Z,6.70
2018-09-24T04:02:53.312Z,6.80
2018-09-24T04:05:28.131Z,6.70
2018-09-24T04:08:03.503Z,6.60
2018-09-24T04:10:42.120Z,6.60
2018-09-24T04:13:17.150Z,6.50
2018-09-24T04:15:52.507Z,6.20
2018-09-24T04:18:27.632Z,6.00
2018-09-24T04:21:02.725Z,6.10
2018-09-24T04:23:37.928Z,6.00
2018-09-24T04:26:13.103Z,6.00
2018-09-24T04:28:48.413Z,5.90
2018-09-24T04:31:23.546Z,5.80
2018-09-24T04:33:59.284Z,5.80
2018-09-24T04:36:33.900Z,5.70
2018-09-24T04:39:09.183Z,5.70
2018-09-24T04:41:44.901Z,5.60
2018-09-24T04:44:21.024Z,5.50
2018-09-24T04:46:56.421Z,5.40
2018-09-24T04:49:33.394Z,5.30
2018-09-24T04:54:50.149Z,5.20
2018-09-24T04:57:25.339Z,5.10
2018-09-24T05:00:00.515Z,5.00
2018-09-24T05:02:39.068Z,5.30
2018-09-24T05:05:14.164Z,5.30
2018-09-24T05:07:49.693Z,5.20
2018-09-24T05:10:25.750Z,5.10
2018-09-24T05:13:00.620Z,4.90
2018-09-24T05:15:35.731Z,4.80
2018-09-24T05:18:10.744Z,4.80
2018-09-24T05:20:45.860Z,4.70
2018-09-24T05:23:20.894Z,4.70
2018-09-24T05:25:56.982Z,4.80
2018-09-24T05:28:31.789Z,4.80
2018-09-24T05:31:06.703Z,4.80
2018-09-24T05:33:41.619Z,4.80
2018-09-24T05:36:16.763Z,4.90
2018-09-24T05:38:51.983Z,5.00
2018-09-24T05:41:26.727Z,5.30
2018-09-24T05:44:01.847Z,5.40
2018-09-24T05:46:38.115Z,5.50
2018-09-24T05:49:14.095Z,5.60
2018-09-24T05:51:49.207Z,5.70
2018-09-24T05:54:24.346Z,5.70
2018-09-24T05:56:59.597Z,5.90
2018-09-24T05:59:34.883Z,6.10
2018-09-24T06:02:09.785Z,6.20
2018-09-24T06:04:45.146Z,6.20
2018-09-24T06:07:20.599Z,6.30
2018-09-24T06:09:55.516Z,6.40
2018-09-24T06:12:30.725Z,6.60
2018-09-24T06:15:05.803Z,6.70
2018-09-24T06:17:40.890Z,6.80
2018-09-24T06:20:15.676Z,6.90
2018-09-24T06:22:50.409Z,7.00
2018-09-24T06:25:25.493Z,7.10
2018-09-24T06:28:06.480Z,7.20
2018-09-24T06:33:22.648Z,7.40
2018-09-24T06:35:57.827Z,7.40
2018-09-24T06:38:32.834Z,7.30
2018-09-24T06:41:08.160Z,7.40
2018-09-24T06:43:43.678Z,7.60
2018-09-24T06:46:18.968Z,7.70
2018-09-24T06:48:55.080Z,7.70
2018-09-24T06:51:29.976Z,7.80
2018-09-24T06:54:05.015Z,8.00
2018-09-24T06:56:39.939Z,8.00
2018-09-24T06:59:15.321Z,8.00
2018-09-24T07:01:52.007Z,8.00
2018-09-24T07:04:26.693Z,8.40
2018-09-24T07:07:02.153Z,8.40
2018-09-24T07:09:37.357Z,8.50
2018-09-24T07:12:12.434Z,8.40
2018-09-24T07:14:47.927Z,8.50
2018-09-24T07:17:22.802Z,8.60
2018-09-24T07:19:58.894Z,8.70
2018-09-24T07:22:33.731Z,9.10
2018-09-24T07:25:09.061Z,9.30
2018-09-24T07:27:44.131Z,9.40
2018-09-24T07:30:19.210Z,9.40
2018-09-24T07:32:54.837Z,9.50
2018-09-24T07:35:30.106Z,9.50
2018-09-24T07:38:05.360Z,9.50
2018-09-24T07:40:40.445Z,9.60
2018-09-24T07:43:15.751Z,9.90
2018-09-24T07:45:50.337Z,9.90
2018-09-24T07:48:25.247Z,9.90
2018-09-24T07:51:01.072Z,10.00
2018-09-24T07:53:36.293Z,10.20
2018-09-24T07:56:11.830Z,10.30
2018-09-24T07:58:46.905Z,10.40
2018-09-24T08:01:22.393Z,10.60
2018-09-24T08:03:57.060Z,10.70
2018-09-24T08:06:32.222Z,10.80
2018-09-24T08:09:07.534Z,10.80
2018-09-24T08:11:42.697Z,10.80
2018-09-24T08:14:17.751Z,10.90
2018-09-24T08:16:54.288Z,10.90
2018-09-24T08:19:29.235Z,11.00
2018-09-24T08:22:04.219Z,11.00
2018-09-24T08:24:39.462Z,11.10
2018-09-24T08:27:14.738Z,11.20
2018-09-24T08:29:56.946Z,11.40
2018-09-24T08:32:31.572Z,11.50
2018-09-24T08:35:06.568Z,11.70
2018-09-24T08:37:41.778Z,11.70
2018-09-24T08:40:16.789Z,11.70
2018-09-24T08:42:51.926Z,11.80
2018-09-24T08:45:27.093Z,11.80
2018-09-24T08:48:02.357Z,11.90
2018-09-24T08:50:37.234Z,12.00
2018-09-24T08:53:12.572Z,12.10
2018-09-24T08:55:47.364Z,12.20
2018-09-24T08:58:22.371Z,12.40
2018-09-24T09:01:00.508Z,12.40
2018-09-24T09:03:35.775Z,12.40
2018-09-24T09:06:11.153Z,12.50
2018-09-24T09:08:46.113Z,12.60
2018-09-24T09:11:22.321Z,12.70
2018-09-24T09:13:57.472Z,12.80
2018-09-24T09:16:32.835Z,12.90
2018-09-24T09:19:13.544Z,12.90
2018-09-24T09:21:48.905Z,13.10
2018-09-24T09:24:24.065Z,13.20
2018-09-24T09:27:00.878Z,13.20
2018-09-24T09:29:36.349Z,13.20
2018-09-24T09:32:11.635Z,13.10
2018-09-24T09:34:46.843Z,13.20
2018-09-24T09:37:22.026Z,13.20
2018-09-24T09:39:57.519Z,13.30
2018-09-24T09:42:32.702Z,13.30
2018-09-24T09:45:08.581Z,13.30
2018-09-24T09:47:43.783Z,13.60
2018-09-24T09:50:18.462Z,13.80
2018-09-24T09:52:53.306Z,14.20
2018-09-24T09:55:28.256Z,14.30
2018-09-24T09:58:03.082Z,14.30
2018-09-24T10:00:37.821Z,14.40
2018-09-24T10:03:12.504Z,15.00
2018-09-24T10:05:47.546Z,16.10
2018-09-24T10:08:22.724Z,16.00
2018-09-24T10:10:59.881Z,17.00
2018-09-24T10:13:34.882Z,17.50
2018-09-24T10:16:11.856Z,17.60
2018-09-24T10:18:46.506Z,17.00
2018-09-24T10:21:21.484Z,16.50
2018-09-24T10:23:56.064Z,15.80
2018-09-24T10:26:30.705Z,15.10
2018-09-24T10:29:05.920Z,14.90
2018-09-24T10:31:40.914Z,15.30
2018-09-24T10:34:15.807Z,15.50
2018-09-24T10:36:52.722Z,15.60
2018-09-24T10:39:27.190Z,15.70
2018-09-24T10:42:02.344Z,15.60
2018-09-24T10:44:36.632Z,16.20
2018-09-24T10:47:11.333Z,17.60
2018-09-24T10:52:28.189Z,19.60
2018-09-24T10:55:03.296Z,19.80
2018-09-24T10:57:38.757Z,20.80
2018-09-24T11:00:14.899Z,20.80
2018-09-24T11:02:50.236Z,19.40
2018-09-24T11:05:25.565Z,18.90
2018-09-24T11:08:00.314Z,18.70
2018-09-24T11:10:35.272Z,19.50
2018-09-24T11:13:10.598Z,18.50
2018-09-24T11:15:45.566Z,17.30
2018-09-24T11:18:20.810Z,16.50
2018-09-24T11:20:55.763Z,17.10
2018-09-24T11:23:32.792Z,19.00
2018-09-24T11:26:07.685Z,18.80
2018-09-24T11:28:43.016Z,17.60
2018-09-24T11:31:19.830Z,17.70
2018-09-24T11:33:54.794Z,19.70
2018-09-24T11:36:29.642Z,21.60
2018-09-24T11:39:04.555Z,22.60
2018-09-24T11:41:39.536Z,22.60
2018-09-24T11:44:14.714Z,21.60
2018-09-24T11:46:49.483Z,20.30
2018-09-24T11:49:24.576Z,19.00
2018-09-24T11:51:59.744Z,18.50
2018-09-24T11:54:34.761Z,18.00
2018-09-24T11:57:12.189Z,17.60
2018-09-24T11:59:47.229Z,17.00
2018-09-24T12:02:22.326Z,16.70
2018-09-24T12:04:57.428Z,16.40
2018-09-24T12:07:32.435Z,15.90
2018-09-24T12:10:07.604Z,15.80
2018-09-24T12:12:42.349Z,15.80
2018-09-24T12:15:17.492Z,15.80
2018-09-24T12:17:52.658Z,15.60
2018-09-24T12:20:28.008Z,15.60
2018-09-24T12:23:02.802Z,15.60
2018-09-24T12:25:37.593Z,15.80
2018-09-24T12:28:13.442Z,16.40
2018-09-24T12:30:48.593Z,17.50
2018-09-24T12:36:05.653Z,17.90
2018-09-24T12:38:40.858Z,17.70
2018-09-24T12:41:16.497Z,18.40
2018-09-24T12:43:52.166Z,18.90
2018-09-24T12:46:27.478Z,19.10
2018-09-24T12:49:02.409Z,20.10
2018-09-24T12:51:37.626Z,19.80
2018-09-24T12:54:12.371Z,20.30
2018-09-24T12:56:53.281Z,19.50
2018-09-24T12:59:28.965Z,18.60
2018-09-24T13:02:04.299Z,17.70
2018-09-24T13:04:39.873Z,17.00
2018-09-24T13:07:16.322Z,16.70
2018-09-24T13:09:51.735Z,16.40
2018-09-24T13:12:26.935Z,16.60
2018-09-24T13:15:01.767Z,16.90
2018-09-24T13:17:36.377Z,16.90
2018-09-24T13:20:13.472Z,17.00
2018-09-24T13:22:49.553Z,18.00
2018-09-24T13:25:25.039Z,19.20
2018-09-24T13:28:00.591Z,19.80
2018-09-24T13:30:35.621Z,21.20
2018-09-24T13:33:10.589Z,22.60
2018-09-24T13:35:45.831Z,23.50
2018-09-24T13:38:20.724Z,24.10
2018-09-24T13:40:56.280Z,23.30
2018-09-24T13:43:31.619Z,23.80
2018-09-24T13:46:06.710Z,23.80
2018-09-24T13:48:42.022Z,24.40
2018-09-24T13:51:18.527Z,24.80
2018-09-24T13:53:54.061Z,23.60
2018-09-24T13:56:29.439Z,23.10
2018-09-24T13:59:05.696Z,23.20
2018-09-24T14:01:41.685Z,23.40
2018-09-24T14:04:17.804Z,23.10
2018-09-24T14:06:58.588Z,21.10
2018-09-24T14:09:34.502Z,19.90
2018-09-24T14:12:11.151Z,20.50
2018-09-24T14:14:49.140Z,19.80
2018-09-24T14:20:07.179Z,18.60
2018-09-24T14:22:44.852Z,18.10
2018-09-24T14:25:22.688Z,17.80
2018-09-24T14:27:57.927Z,17.80
2018-09-24T14:30:33.802Z,19.30
2018-09-24T14:33:08.688Z,20.50
2018-09-24T14:35:44.209Z,21.20
2018-09-24T14:38:20.808Z,21.50
2018-09-24T14:40:56.389Z,22.40
2018-09-24T14:43:32.139Z,23.20
2018-09-24T14:46:12.765Z,22.90
2018-09-24T14:48:50.704Z,22.90
2018-09-24T14:51:26.025Z,22.90
2018-09-24T14:54:01.546Z,22.80
2018-09-24T14:56:38.902Z,22.00
2018-09-24T14:59:15.237Z,21.80
2018-09-24T15:01:50.327Z,21.90
2018-09-24T15:04:27.034Z,22.00
2018-09-24T15:07:02.075Z,22.70
2018-09-24T15:09:37.383Z,22.60
2018-09-24T15:12:13.032Z,23.00
2018-09-24T15:14:49.803Z,23.60
2018-09-24T15:17:26.741Z,23.60
2018-09-24T15:20:01.863Z,22.60
2018-09-24T15:22:37.063Z,20.10
2018-09-24T15:25:13.059Z,17.50
2018-09-24T15:27:48.223Z,16.20
2018-09-24T15:30:24.226Z,15.70
2018-09-24T15:32:59.342Z,15.70
2018-09-24T15:35:34.549Z,15.70
2018-09-24T15:38:09.802Z,15.70
2018-09-24T15:40:45.818Z,15.60
2018-09-24T15:43:21.784Z,15.40
2018-09-24T15:45:57.300Z,15.10
2018-09-24T15:48:33.730Z,16.10
2018-09-24T15:51:09.124Z,17.70
2018-09-24T15:53:44.508Z,19.20
2018-09-24T15:56:19.805Z,19.80
2018-09-24T15:58:56.050Z,20.20
2018-09-24T16:04:12.938Z,21.10
2018-09-24T16:06:48.225Z,21.10
2018-09-24T16:09:23.477Z,20.70
2018-09-24T16:11:58.431Z,20.40
2018-09-24T16:14:34.609Z,20.30
2018-09-24T16:17:09.740Z,20.40
2018-09-24T16:19:44.232Z,20.30
2018-09-24T16:22:19.497Z,20.40
2018-09-24T16:24:54.984Z,20.30
2018-09-24T16:27:29.711Z,19.80
2018-09-24T16:30:05.292Z,18.40
2018-09-24T16:32:40.635Z,16.80
2018-09-24T16:35:16.827Z,15.60
2018-09-24T16:37:51.985Z,15.10
2018-09-24T16:40:26.787Z,15.10
2018-09-24T16:43:01.779Z,15.60
2018-09-24T16:45:37.166Z,15.90
2018-09-24T16:50:55.429Z,16.10
2018-09-24T16:53:33.074Z,15.90
2018-09-24T16:56:08.317Z,15.90
2018-09-24T16:58:43.144Z,15.50
2018-09-24T17:01:18.086Z,15.00
2018-09-24T17:03:53.419Z,14.50
2018-09-24T17:06:28.781Z,14.10
2018-09-24T17:09:07.113Z,13.90
2018-09-24T17:11:42.853Z,13.60
2018-09-24T17:14:19.374Z,13.30
2018-09-24T17:16:57.421Z,13.20
2018-09-24T17:19:34.030Z,13.00
2018-09-24T17:22:09.242Z,12.90
2018-09-24T17:24:45.037Z,12.80
2018-09-24T17:27:20.576Z,12.70
2018-09-24T17:29:55.393Z,12.60
2018-09-24T17:32:33.116Z,12.50
2018-09-24T17:35:08.812Z,12.40
2018-09-24T17:37:44.933Z,12.30
2018-09-24T17:40:20.364Z,12.20
2018-09-24T17:42:55.600Z,12.10
2018-09-24T17:45:30.065Z,12.00
2018-09-24T17:48:05.153Z,11.90
2018-09-24T17:50:41.168Z,11.80
2018-09-24T17:53:15.977Z,11.80
2018-09-24T17:55:50.833Z,11.70
2018-09-24T17:58:25.588Z,11.70
2018-09-24T18:01:00.320Z,11.60
2018-09-24T18:03:35.879Z,11.50
2018-09-24T18:06:10.818Z,11.50
2018-09-24T18:08:46.108Z,11.40
2018-09-24T18:11:21.175Z,11.50
2018-09-24T18:13:56.202Z,11.50
2018-09-24T18:16:31.410Z,11.60
2018-09-24T18:19:11.392Z,11.60
2018-09-24T18:21:46.148Z,11.60
2018-09-24T18:24:21.455Z,11.70
2018-09-24T18:26:56.482Z,11.70
2018-09-24T18:29:31.406Z,11.70
2018-09-24T18:32:06.625Z,11.70
2018-09-24T18:34:42.090Z,11.70
2018-09-24T18:37:18.475Z,11.80
2018-09-24T18:39:53.513Z,11.90
2018-09-24T18:42:28.888Z,11.90
2018-09-24T18:45:04.069Z,11.80
2018-09-24T18:47:39.865Z,11.90
2018-09-24T18:50:15.638Z,11.90
2018-09-24T18:52:51.293Z,11.80
2018-09-24T18:55:26.456Z,11.70
2018-09-24T18:58:03.084Z,11.60
2018-09-24T19:00:38.329Z,11.60
2018-09-24T19:03:13.039Z,11.60
2018-09-24T19:05:48.172Z,11.70
2018-09-24T19:08:23.339Z,11.80
2018-09-24T19:10:58.438Z,11.70
2018-09-24T19:13:34.486Z,11.70
2018-09-24T19:16:09.727Z,11.70
2018-09-24T19:18:45.418Z,11.60
2018-09-24T19:21:20.711Z,11.50
2018-09-24T19:23:56.026Z,11.50
2018-09-24T19:26:31.006Z,11.60
2018-09-24T19:29:06.263Z,11.80
2018-09-24T19:31:40.997Z,11.70
2018-09-24T19:34:16.175Z,11.60
2018-09-24T19:36:51.360Z,11.30
2018-09-24T19:39:26.114Z,11.30
2018-09-24T19:42:01.303Z,11.30
2018-09-24T19:44:36.547Z,11.30
2018-09-24T19:47:11.826Z,11.10
2018-09-24T19:49:47.868Z,11.00
2018-09-24T19:52:23.056Z,11.00
2018-09-24T19:54:58.128Z,10.60
2018-09-24T19:57:33.264Z,10.60
2018-09-24T20:00:09.447Z,10.40
2018-09-24T20:02:45.655Z,10.30
2018-09-24T20:05:21.312Z,10.30
2018-09-24T20:07:56.895Z,10.20
2018-09-24T20:10:31.734Z,10.10
2018-09-24T20:13:06.594Z,10.00
2018-09-24T20:15:55.788Z,9.90
2018-09-24T20:18:30.848Z,9.90
2018-09-24T20:23:50.803Z,9.60
2018-09-24T20:26:30.952Z,9.50
2018-09-24T20:29:07.840Z,9.30
2018-09-24T20:31:43.254Z,9.20
2018-09-24T20:34:18.351Z,9.20
2018-09-24T20:36:53.334Z,9.40
2018-09-24T20:39:28.649Z,9.50
2018-09-24T20:42:06.281Z,9.30
2018-09-24T20:44:41.038Z,9.20
2018-09-24T20:47:16.554Z,9.10
2018-09-24T20:49:51.935Z,9.10
2018-09-24T20:52:27.677Z,9.10
2018-09-24T20:55:03.179Z,9.20
2018-09-24T20:57:39.491Z,9.30
2018-09-24T21:00:14.362Z,9.20
2018-09-24T21:02:49.914Z,9.10
2018-09-24T21:05:24.937Z,9.10
2018-09-24T21:07:59.844Z,9.10
2018-09-24T21:10:34.863Z,9.10
2018-09-24T21:13:09.582Z,8.90
2018-09-24T21:15:44.482Z,9.00
2018-09-24T21:18:19.602Z,9.10
2018-09-24T21:20:54.442Z,8.90
2018-09-24T21:23:30.044Z,8.80
2018-09-24T21:26:05.279Z,8.70
2018-09-24T21:28:39.791Z,8.50
2018-09-24T21:31:14.612Z,8.30
2018-09-24T21:33:50.832Z,8.10
2018-09-24T21:36:25.859Z,7.90
2018-09-24T21:39:01.179Z,7.80
2018-09-24T21:41:36.149Z,7.60
2018-09-24T21:44:11.053Z,7.50
2018-09-24T21:46:46.241Z,7.40
2018-09-24T21:49:21.316Z,7.20
2018-09-24T21:51:56.133Z,7.10
2018-09-24T21:54:31.438Z,7.00
2018-09-24T21:57:06.324Z,6.90
2018-09-24T21:59:41.214Z,6.80
2018-09-24T22:02:15.938Z,6.80
2018-09-24T22:04:51.456Z,6.80
2018-09-24T22:07:26.420Z,7.10
2018-09-24T22:10:01.539Z,7.20
2018-09-24T22:12:36.362Z,7.20
2018-09-24T22:15:11.019Z,7.10
2018-09-24T22:17:45.802Z,7.00
2018-09-24T22:20:20.538Z,6.90
2018-09-24T22:22:55.691Z,6.90
2018-09-24T22:25:30.186Z,6.70
2018-09-24T22:28:04.604Z,6.50
2018-09-24T22:30:39.503Z,6.40
2018-09-24T22:33:14.380Z,6.30
2018-09-24T22:35:49.095Z,6.40
2018-09-24T22:38:23.721Z,6.40
2018-09-24T22:40:58.312Z,6.50
2018-09-24T22:43:33.618Z,6.60
2018-09-24T22:46:08.267Z,6.50
2018-09-24T22:48:46.633Z,6.30
2018-09-24T22:51:21.083Z,6.10
2018-09-24T22:53:55.866Z,5.90
2018-09-24T22:56:30.107Z,5.90
2018-09-24T22:59:04.787Z,6.10
2018-09-24T23:01:39.688Z,6.20
2018-09-24T23:04:14.423Z,6.20
2018-09-24T23:06:49.154Z,6.20
2018-09-24T23:09:24.314Z,6.10
2018-09-24T23:11:58.953Z,6.00
2018-09-24T23:14:33.531Z,5.70
2018-09-24T23:17:08.190Z,5.50
2018-09-24T23:19:42.886Z,5.40
2018-09-24T23:22:18.059Z,5.20
2018-09-24T23:24:52.825Z,5.10
2018-09-24T23:27:33.056Z,5.00
2018-09-24T23:30:07.679Z,5.00
2018-09-24T23:32:42.247Z,4.90
2018-09-24T23:35:16.883Z,4.80
2018-09-24T23:37:51.965Z,4.70
2018-09-24T23:40:26.758Z,4.70
2018-09-24T23:43:01.299Z,4.70
2018-09-24T23:45:36.631Z,4.60
2018-09-24T23:48:11.238Z,4.60
2018-09-24T23:50:46.349Z,4.50
2018-09-24T23:53:23.306Z,4.40
2018-09-24T23:55:58.796Z,4.40
2018-09-24T23:58:33.738Z,4.40
